Time;durP1;ratioP1;P1;durP2;ratioP2;P2;SDS_P1;SDS_P2;PMS_P1;PMS_P2;Temp;Humidity;BMP_temperature;BMP_pressure;BME280_temperature;BME280_humidity;BME280_pressure;Samples;Min_cycle;Max_cycle;Signal;HPM_P1;HPM_P2
2022/07/15 00:00:36;;;;;;;18.13;4.60;;;;;;;13.49;100.00;102093.47;5052629;28;20056;-63
2022/07/15 00:03:02;;;;;;;18.45;4.70;;;;;;;13.48;100.00;102099.66;5052747;28;20093;-63
2022/07/15 00:05:28;;;;;;;19.13;4.72;;;;;;;13.42;100.00;102096.94;5052362;28;20048;-63
2022/07/15 00:07:53;;;;;;;16.65;4.90;;;;;;;13.34;100.00;102095.91;5052532;28;20025;-63
2022/07/15 00:10:20;;;;;;;16.98;4.65;;;;;;;13.31;100.00;102091.47;5051713;28;20040;-63
2022/07/15 00:12:54;;;;;;;17.77;4.50;;;;;;;13.27;100.00;102097.59;5052198;28;20476;-63
2022/07/15 00:15:23;;;;;;;23.45;4.80;;;;;;;13.24;100.00;102095.78;5052476;28;20036;-64
2022/07/15 00:17:49;;;;;;;19.08;5.10;;;;;;;13.18;100.00;102090.41;5052589;28;20021;-63
2022/07/15 00:20:15;;;;;;;18.98;4.45;;;;;;;13.21;100.00;102090.44;5052396;28;20078;-63
2022/07/15 00:22:42;;;;;;;16.63;4.40;;;;;;;13.10;100.00;102094.72;5052106;28;20471;-63
2022/07/15 00:25:08;;;;;;;16.25;4.28;;;;;;;13.05;100.00;102099.09;5052044;28;20070;-63
2022/07/15 00:27:34;;;;;;;18.50;4.72;;;;;;;13.00;100.00;102095.44;5052546;28;20442;-63
2022/07/15 00:29:59;;;;;;;19.30;4.70;;;;;;;13.02;100.00;102099.91;5052197;28;20124;-63
2022/07/15 00:32:25;;;;;;;17.20;4.20;;;;;;;13.03;100.00;102090.19;5051774;28;20025;-64
2022/07/15 00:34:53;;;;;;;19.13;4.32;;;;;;;12.97;100.00;102092.75;5051993;28;20024;-63
2022/07/15 00:37:18;;;;;;;17.42;4.30;;;;;;;12.97;100.00;102100.72;5052074;28;20384;-63
2022/07/15 00:39:44;;;;;;;20.85;5.05;;;;;;;12.90;100.00;102092.69;5052463;28;20032;-63
2022/07/15 00:42:43;;;;;;;19.17;4.57;;;;;;;12.95;100.00;102091.84;5052029;28;20041;-63
2022/07/15 00:45:01;;;;;;;18.75;4.50;;;;;;;12.95;100.00;102091.84;5049728;28;20049;-63
2022/07/15 00:47:27;;;;;;;17.98;4.60;;;;;;;12.88;100.00;102088.22;5051814;28;20036;-63
2022/07/15 00:49:53;;;;;;;18.80;4.63;;;;;;;12.77;100.00;102087.16;5049494;28;20372;-64
2022/07/15 00:52:19;;;;;;;18.42;4.40;;;;;;;12.69;100.00;102087.03;5051938;28;20029;-64
2022/07/15 00:54:49;;;;;;;18.60;5.10;;;;;;;12.54;100.00;102098.31;5051416;28;20033;-64
2022/07/15 00:57:16;;;;;;;20.90;5.20;;;;;;;12.50;100.00;102092.06;5051749;28;20032;-63
2022/07/15 00:59:43;;;;;;;20.17;5.00;;;;;;;12.54;100.00;102088.59;5048151;28;20025;-64
2022/07/15 01:02:09;;;;;;;18.75;5.30;;;;;;;12.54;100.00;102091.25;5050354;28;20025;-63
2022/07/15 01:04:37;;;;;;;20.65;5.10;;;;;;;12.54;100.00;102087.72;5051176;28;20468;-64
2022/07/15 01:07:02;;;;;;;19.08;4.93;;;;;;;12.52;100.00;102093.00;5051391;28;20119;-64
2022/07/15 01:09:28;;;;;;;20.30;4.82;;;;;;;12.55;100.00;102087.72;5051331;28;20112;-63
2022/07/15 01:11:53;;;;;;;18.27;4.65;;;;;;;12.42;100.00;102084.84;5051185;28;20468;-63
2022/07/15 01:14:18;;;;;;;20.55;5.03;;;;;;;12.33;100.00;102089.16;5051329;28;20029;-63
2022/07/15 01:16:44;;;;;;;19.13;4.88;;;;;;;12.35;100.00;102078.56;5051011;28;20075;-64
2022/07/15 01:19:09;;;;;;;18.58;4.88;;;;;;;12.29;100.00;102083.75;5050941;28;20439;-63
2022/07/15 01:21:34;;;;;;;19.13;5.05;;;;;;;12.33;100.00;102078.53;5050583;28;20036;-63
2022/07/15 01:24:00;;;;;;;18.85;4.97;;;;;;;12.29;100.00;102086.38;5050941;28;20103;-63
2022/07/15 01:26:26;;;;;;;19.77;4.93;;;;;;;12.35;100.00;102095.34;5050934;28;20025;-63
2022/07/15 01:28:51;;;;;;;21.70;5.22;;;;;;;12.35;100.00;102089.16;5050852;28;20033;-63
2022/07/15 01:31:17;;;;;;;18.88;5.28;;;;;;;12.25;100.00;102103.13;5051090;28;20092;-63
2022/07/15 01:33:42;;;;;;;17.65;4.88;;;;;;;12.21;100.00;102104.81;5050926;28;20033;-63
2022/07/15 01:36:07;;;;;;;17.92;4.70;;;;;;;12.13;100.00;102103.78;5049995;28;20491;-64
2022/07/15 01:38:33;;;;;;;18.88;4.95;;;;;;;12.08;100.00;102106.34;5050740;28;20035;-63
2022/07/15 01:40:58;;;;;;;18.98;5.03;;;;;;;12.03;100.00;102106.28;5051025;28;20086;-63
2022/07/15 01:43:24;;;;;;;20.60;5.10;;;;;;;12.03;100.00;102100.09;5049562;28;20055;-63
2022/07/15 01:45:49;;;;;;;20.05;5.07;;;;;;;11.92;100.00;102106.91;5050220;28;20095;-63
2022/07/15 01:51:00;;;;;;;18.17;4.97;;;;;;;11.72;100.00;102106.53;5048586;28;20079;-63
2022/07/15 01:53:27;;;;;;;18.98;4.95;;;;;;;11.78;100.00;102117.22;5050894;28;20464;-63
2022/07/15 01:55:52;;;;;;;20.20;5.38;;;;;;;11.80;100.00;102112.88;5050587;28;20458;-63
2022/07/15 01:58:18;;;;;;;21.23;5.20;;;;;;;11.84;100.00;102107.66;5050694;28;20025;-63
2022/07/15 02:00:43;;;;;;;17.45;4.97;;;;;;;11.78;100.00;102104.91;5050427;28;20033;-63
2022/07/15 02:03:09;;;;;;;16.60;4.75;;;;;;;11.79;100.00;102113.72;5050530;28;20207;-63
2022/07/15 02:05:35;;;;;;;18.70;5.10;;;;;;;11.74;100.00;102115.41;5050610;28;20025;-63
2022/07/15 02:08:01;;;;;;;17.25;4.80;;;;;;;11.68;100.00;102116.19;5050931;28;20033;-63
2022/07/15 02:10:39;;;;;;;17.42;4.93;;;;;;;11.62;100.00;102114.28;5050847;28;20075;-63
2022/07/15 02:13:06;;;;;;;19.15;5.20;;;;;;;11.66;100.00;102109.94;5049374;28;20035;-63
2022/07/15 02:15:33;;;;;;;19.38;5.20;;;;;;;11.67;100.00;102117.91;5050061;28;20434;-63
2022/07/15 02:17:58;;;;;;;20.60;5.20;;;;;;;11.65;100.00;102117.00;5050471;28;20022;-63
2022/07/15 02:20:23;;;;;;;19.58;4.93;;;;;;;11.72;100.00;102112.69;5050846;28;20391;-63
2022/07/15 02:22:49;;;;;;;17.85;4.82;;;;;;;11.67;100.00;102106.44;5050506;28;20025;-63
2022/07/15 02:25:14;;;;;;;18.20;4.82;;;;;;;11.58;100.00;102104.50;5050486;28;20078;-63
2022/07/15 02:27:39;;;;;;;16.67;5.00;;;;;;;11.50;100.00;102100.78;5050640;28;20021;-63
2022/07/15 02:30:05;;;;;;;19.10;4.97;;;;;;;11.44;100.00;102100.66;5050394;28;20454;-63
2022/07/15 02:32:30;;;;;;;18.08;4.90;;;;;;;11.39;100.00;102097.94;5051504;28;20025;-63
2022/07/15 02:34:56;;;;;;;16.95;4.85;;;;;;;11.40;100.00;102105.03;5054159;28;20360;-63
2022/07/15 02:37:22;;;;;;;20.33;4.93;;;;;;;11.33;100.00;102098.69;5054548;28;20120;-63
2022/07/15 02:39:48;;;;;;;18.73;5.10;;;;;;;11.31;100.00;102096.88;5054328;28;20029;-63
2022/07/15 02:42:13;;;;;;;17.45;4.65;;;;;;;11.27;100.00;102102.94;5054157;28;20072;-63
2022/07/15 02:44:38;;;;;;;18.10;5.30;;;;;;;11.29;100.00;102101.25;5053751;28;20168;-63
2022/07/15 02:47:03;;;;;;;19.58;5.10;;;;;;;11.28;100.00;102110.03;5054223;28;20025;-63
2022/07/15 02:49:29;;;;;;;18.10;5.05;;;;;;;11.28;100.00;102099.44;5053557;28;20032;-63
2022/07/15 02:51:54;;;;;;;19.08;4.97;;;;;;;11.17;100.00;102099.25;5053955;28;20070;-64
2022/07/15 02:54:19;;;;;;;23.48;5.47;;;;;;;11.20;100.00;102116.91;5054105;28;20029;-63
2022/07/15 02:56:45;;;;;;;19.30;4.97;;;;;;;11.19;100.00;102115.16;5053682;28;20033;-63
2022/07/15 02:59:10;;;;;;;18.65;5.22;;;;;;;11.17;100.00;102115.13;5053823;28;20111;-63
2022/07/15 03:01:35;;;;;;;18.52;5.40;;;;;;;11.16;100.00;102118.63;5054038;28;20029;-64
2022/07/15 03:04:01;;;;;;;20.40;5.47;;;;;;;11.19;100.00;102128.38;5053921;28;20029;-63
2022/07/15 03:06:26;;;;;;;20.45;5.55;;;;;;;11.17;100.00;102131.00;5053694;28;20048;-63
2022/07/15 03:08:51;;;;;;;20.27;5.50;;;;;;;11.19;100.00;102141.63;5054040;28;20021;-63
2022/07/15 03:11:17;;;;;;;19.23;5.50;;;;;;;11.15;100.00;102140.63;5054021;28;20021;-63
2022/07/15 03:13:42;;;;;;;19.88;5.72;;;;;;;11.16;100.00;102142.44;5053639;28;20052;-63
2022/07/15 03:16:07;;;;;;;20.98;5.50;;;;;;;11.18;100.00;102139.81;5053135;28;20506;-63
2022/07/15 03:18:32;;;;;;;17.88;5.13;;;;;;;11.12;100.00;102135.28;5053496;28;20037;-63
2022/07/15 03:20:58;;;;;;;19.00;5.60;;;;;;;11.06;100.00;102138.69;5053896;28;20025;-63
2022/07/15 03:23:23;;;;;;;19.70;5.63;;;;;;;11.05;100.00;102144.81;5053260;28;20032;-63
2022/07/15 03:25:48;;;;;;;20.63;5.85;;;;;;;11.04;100.00;102145.69;5052397;28;20559;-64
2022/07/15 03:28:14;;;;;;;19.75;5.43;;;;;;;11.06;100.00;102140.44;5053410;28;20033;-63
2022/07/15 03:30:39;;;;;;;20.70;5.55;;;;;;;11.08;100.00;102147.56;5053287;28;20090;-63
2022/07/15 03:33:05;;;;;;;22.23;5.63;;;;;;;11.12;100.00;102154.69;5053576;28;20050;-63
2022/07/15 03:35:30;;;;;;;20.25;5.57;;;;;;;11.07;100.00;102161.66;5053048;28;20399;-63
2022/07/15 03:37:56;;;;;;;20.60;5.32;;;;;;;11.05;100.00;102160.69;5053177;28;20052;-63
2022/07/15 03:40:21;;;;;;;21.00;5.53;;;;;;;11.04;100.00;102164.22;5051502;28;20124;-63
2022/07/15 03:42:46;;;;;;;21.90;5.95;;;;;;;11.05;100.00;102160.69;5052018;28;20040;-63
2022/07/15 03:45:11;;;;;;;20.83;5.32;;;;;;;11.07;100.00;102156.34;5051351;28;20053;-63
2022/07/15 03:47:37;;;;;;;20.52;5.78;;;;;;;11.11;100.00;102165.25;5053471;28;20025;-63
2022/07/15 03:50:03;;;;;;;20.38;5.53;;;;;;;11.12;100.00;102165.28;5052594;28;20174;-63
2022/07/15 03:52:28;;;;;;;20.65;5.90;;;;;;;11.13;100.00;102169.72;5052586;28;20028;-64
2022/07/15 03:54:53;;;;;;;18.92;5.30;;;;;;;11.12;100.00;102169.69;5052190;28;20025;-63
2022/07/15 03:57:20;;;;;;;17.40;5.00;;;;;;;11.16;100.00;102169.78;5052985;28;20039;-64
2022/07/15 03:59:45;;;;;;;20.10;5.72;;;;;;;11.24;100.00;102177.00;5052711;28;20052;-63
2022/07/15 04:02:10;;;;;;;20.75;5.88;;;;;;;11.31;100.00;102181.59;5053347;28;20056;-63
2022/07/15 04:04:36;;;;;;;19.65;5.75;;;;;;;11.43;100.00;102173.00;5052349;28;20388;-63
2022/07/15 04:07:01;;;;;;;20.77;5.88;;;;;;;11.52;100.00;102178.53;5051593;28;20033;-63
2022/07/15 04:09:27;;;;;;;20.60;5.60;;;;;;;11.55;100.00;102178.59;5052664;28;20032;-64
2022/07/15 04:11:52;;;;;;;21.67;5.80;;;;;;;11.63;100.00;102181.41;5052626;28;20033;-63
2022/07/15 04:14:18;;;;;;;21.60;6.00;;;;;;;11.74;100.00;102174.56;5052940;28;20110;-63
2022/07/15 04:16:44;;;;;;;20.73;5.72;;;;;;;11.78;100.00;102181.72;5051950;28;20055;-63
2022/07/15 04:19:09;;;;;;;20.58;5.90;;;;;;;11.77;100.00;102173.75;5052191;28;20063;-63
2022/07/15 04:21:34;;;;;;;23.27;5.78;;;;;;;11.91;100.00;102181.97;5052196;28;20453;-63
2022/07/15 04:24:00;;;;;;;21.70;6.07;;;;;;;11.98;100.00;102178.59;5052336;28;20025;-63
2022/07/15 04:26:26;;;;;;;19.77;5.50;;;;;;;12.03;100.00;102175.19;5051447;28;20084;-64
2022/07/15 04:28:51;;;;;;;21.17;6.35;;;;;;;12.10;100.00;102181.50;5052535;28;20108;-63
2022/07/15 04:31:17;;;;;;;21.27;5.90;;;;;;;12.19;100.00;102184.31;5051788;28;20522;-63
2022/07/15 04:33:42;;;;;;;19.48;5.80;;;;;;;12.26;100.00;102179.13;5051969;28;20028;-63
2022/07/15 04:36:07;;;;;;;20.80;6.18;;;;;;;12.22;100.00;102180.84;5052187;28;20045;-63
2022/07/15 04:38:33;;;;;;;20.17;5.68;;;;;;;12.30;100.00;102181.84;5049369;28;20039;-64
2022/07/15 04:40:58;;;;;;;19.33;5.85;;;;;;;12.34;100.00;102189.00;5049211;28;20021;-64
2022/07/15 04:43:24;;;;;;;21.48;5.40;;;;;;;12.35;100.00;102182.84;5051717;28;20130;-64
2022/07/15 04:45:50;;;;;;;21.88;5.50;;;;;;;12.41;100.00;102190.03;5051581;28;20028;-63
2022/07/15 04:50:59;;;;;;;20.38;5.60;;;;;;;12.43;100.00;102196.25;5052074;28;20043;-65
2022/07/15 04:53:25;;;;;;;18.70;5.32;;;;;;;12.42;100.00;102193.56;5051719;28;20017;-63
2022/07/15 04:55:50;;;;;;;21.83;5.45;;;;;;;12.35;100.00;102193.47;5051468;28;20041;-63
2022/07/15 04:58:15;;;;;;;19.15;5.32;;;;;;;12.31;100.00;102190.72;5051265;28;20029;-63
2022/07/15 05:00:45;;;;;;;20.95;5.50;;;;;;;12.28;100.00;102193.34;5051873;28;20029;-63
2022/07/15 05:03:11;;;;;;;21.92;5.22;;;;;;;12.26;100.00;102195.97;5050266;28;20057;-63
2022/07/15 05:05:37;;;;;;;20.27;5.53;;;;;;;12.25;100.00;102188.84;5050633;28;20112;-63
2022/07/15 05:08:03;;;;;;;20.75;5.57;;;;;;;12.23;100.00;102194.97;5051708;28;20116;-64
2022/07/15 05:10:28;;;;;;;20.65;5.82;;;;;;;12.23;100.00;102200.28;5050241;28;20028;-63
2022/07/15 05:12:53;;;;;;;21.02;5.60;;;;;;;12.18;100.00;102198.44;5050199;28;20025;-64
2022/07/15 05:15:19;;;;;;;20.65;5.78;;;;;;;12.23;100.00;102197.63;5051098;28;20031;-64
2022/07/15 05:17:44;;;;;;;18.80;5.20;;;;;;;12.24;100.00;102202.09;5051360;28;20044;-65
2022/07/15 05:20:10;;;;;;;20.15;5.32;;;;;;;12.25;100.00;102199.47;5050908;28;20056;-64
2022/07/15 05:22:35;;;;;;;19.75;5.38;;;;;;;12.34;100.00;102194.31;5050780;28;20521;-66
2022/07/15 05:25:00;;;;;;;19.33;5.13;;;;;;;12.40;100.00;102196.19;5050707;28;20043;-65
2022/07/15 05:27:26;;;;;;;19.65;5.07;;;;;;;12.48;100.00;102206.94;5051323;28;20028;-65
2022/07/15 05:29:51;;;;;;;19.10;4.93;;;;;;;12.56;100.00;102200.91;5051256;28;20051;-66
2022/07/15 05:32:16;;;;;;;18.42;4.88;;;;;;;12.62;100.00;102199.22;5049074;28;20480;-65
2022/07/15 05:34:42;;;;;;;19.63;4.82;;;;;;;12.65;100.00;102199.28;5049483;28;20099;-66
2022/07/15 05:37:07;;;;;;;19.45;4.80;;;;;;;12.75;100.00;102193.25;5050141;28;20033;-65
2022/07/15 05:39:34;;;;;;;19.35;4.50;;;;;;;12.83;100.00;102194.28;5050872;28;20017;-64
2022/07/15 05:41:59;;;;;;;20.10;4.30;;;;;;;12.91;100.00;102199.72;5050920;28;20037;-65
2022/07/15 05:44:24;;;;;;;17.00;4.25;;;;;;;12.99;100.00;102192.78;5051083;28;20053;-65
2022/07/15 05:46:50;;;;;;;18.17;4.40;;;;;;;13.04;100.00;102192.84;5050315;28;20408;-66
2022/07/15 05:49:16;;;;;;;18.15;4.40;;;;;;;13.14;100.00;102192.13;5049618;28;20055;-65
2022/07/15 05:51:41;;;;;;;16.75;4.30;;;;;;;13.19;100.00;102186.88;5049615;28;20029;-65
2022/07/15 05:54:07;;;;;;;17.15;4.25;;;;;;;13.23;100.00;102183.41;5049902;28;20353;-66
2022/07/15 05:56:32;;;;;;;18.63;4.28;;;;;;;13.31;100.00;102187.06;5049433;28;20071;-64
2022/07/15 05:58:57;;;;;;;18.92;4.20;;;;;;;13.38;100.00;102182.75;5049492;28;20021;-66
2022/07/15 06:01:23;;;;;;;16.27;4.25;;;;;;;13.40;100.00;102186.34;5049447;28;20127;-64
2022/07/15 06:03:48;;;;;;;19.95;4.47;;;;;;;13.44;100.00;102190.81;5050373;28;20052;-66
2022/07/15 06:06:14;;;;;;;17.30;4.40;;;;;;;13.50;100.00;102192.66;5050140;28;20527;-64
2022/07/15 06:08:39;;;;;;;16.88;4.30;;;;;;;13.56;100.00;102198.06;5050097;28;20029;-65
2022/07/15 06:11:05;;;;;;;17.10;4.03;;;;;;;13.62;100.00;102181.31;5050652;28;20067;-65
2022/07/15 06:13:30;;;;;;;16.92;4.20;;;;;;;13.67;100.00;102193.75;5050125;28;20078;-65
2022/07/15 06:15:56;;;;;;;19.42;4.25;;;;;;;13.73;100.00;102195.59;5050654;28;20025;-65
2022/07/15 06:18:21;;;;;;;20.67;4.22;;;;;;;13.78;100.00;102193.91;5050698;28;20112;-65
2022/07/15 06:20:47;;;;;;;17.65;4.07;;;;;;;13.85;100.00;102190.47;5049606;28;20442;-65
2022/07/15 06:23:12;;;;;;;16.58;4.05;;;;;;;13.91;100.00;102190.53;5050596;28;20025;-65
2022/07/15 06:25:37;;;;;;;17.20;4.22;;;;;;;13.95;100.00;102187.03;5049582;28;20039;-64
2022/07/15 06:28:03;;;;;;;17.05;4.13;;;;;;;14.02;100.00;102190.63;5050418;28;20028;-64
2022/07/15 06:30:30;;;;;;;17.75;4.22;;;;;;;14.09;100.00;102186.28;5050434;28;20056;-64
2022/07/15 06:32:56;;;;;;;18.05;4.10;;;;;;;14.14;100.00;102187.25;5050505;28;20029;-65
2022/07/15 06:35:21;;;;;;;17.63;4.13;;;;;;;14.21;100.00;102185.53;5049807;28;20036;-64
2022/07/15 06:37:47;;;;;;;17.50;4.05;;;;;;;14.23;100.00;102184.69;5050230;28;20063;-65
2022/07/15 06:40:12;;;;;;;17.30;4.10;;;;;;;14.27;100.00;102188.25;5049929;28;20036;-64
2022/07/15 06:42:38;;;;;;;16.00;3.65;;;;;;;14.36;100.00;102184.78;5049647;28;20114;-64
2022/07/15 06:45:04;;;;;;;16.65;3.60;;;;;;;14.43;100.00;102192.88;5049517;28;20060;-64
2022/07/15 06:47:30;;;;;;;19.77;4.13;;;;;;;14.50;100.00;102193.78;5050085;28;20406;-64
2022/07/15 06:49:55;;;;;;;17.65;3.55;;;;;;;14.56;100.00;102196.53;5050670;28;20108;-64
2022/07/15 06:52:20;;;;;;;17.45;3.50;;;;;;;14.62;100.00;102193.03;5050387;28;20036;-64
2022/07/15 06:54:46;;;;;;;15.90;2.92;;;;;;;14.70;100.00;102185.16;5049759;28;20364;-64
2022/07/15 06:57:12;;;;;;;14.43;3.10;;;;;;;14.84;100.00;102191.50;5049379;28;20118;-64
2022/07/15 06:59:38;;;;;;;11.82;2.20;;;;;;;14.87;100.00;102186.19;5045808;28;20172;-65
2022/07/15 07:02:03;;;;;;;11.90;2.50;;;;;;;14.94;100.00;102193.34;5043813;28;20099;-65
2022/07/15 07:04:28;;;;;;;13.00;2.20;;;;;;;15.03;100.00;102186.28;5050491;28;20036;-65
2022/07/15 07:06:54;;;;;;;15.80;2.30;;;;;;;15.10;100.00;102197.00;5049665;28;20447;-65
2022/07/15 07:09:19;;;;;;;14.20;2.30;;;;;;;15.14;100.00;102195.25;5050143;28;20100;-65
2022/07/15 07:11:44;;;;;;;15.05;2.35;;;;;;;15.23;100.00;102203.31;5050333;28;20361;-64
2022/07/15 07:14:10;;;;;;;13.52;2.20;;;;;;;15.31;100.00;102203.34;5049863;28;20472;-64
2022/07/15 07:16:35;;;;;;;12.95;2.35;;;;;;;15.38;100.00;102201.59;5049771;28;20582;-64
2022/07/15 07:19:00;;;;;;;10.25;2.00;;;;;;;15.40;100.00;102207.84;5050073;28;20074;-65
2022/07/15 07:21:26;;;;;;;9.60;2.10;;;;;;;15.44;100.00;102202.53;5053694;28;20055;-65
2022/07/15 07:23:52;;;;;;;12.77;2.20;;;;;;;15.54;100.00;102205.25;5053519;28;20036;-65
2022/07/15 07:26:17;;;;;;;11.57;2.30;;;;;;;15.58;100.00;102205.28;5053256;28;20079;-65
2022/07/15 07:28:43;;;;;;;13.45;2.30;;;;;;;15.65;100.00;102207.09;5053213;28;20029;-65
2022/07/15 07:31:11;;;;;;;12.85;2.40;;;;;;;15.71;100.00;102208.88;5053955;28;20513;-63
2022/07/15 07:33:38;;;;;;;14.05;2.20;;;;;;;15.77;100.00;102214.25;5053492;28;20059;-64
2022/07/15 07:36:04;;;;;;;10.48;2.20;;;;;;;15.79;100.00;102207.19;5053247;28;20025;-64
2022/07/15 07:38:31;;;;;;;11.50;2.30;;;;;;;15.89;100.00;102202.78;5051271;28;20033;-66
2022/07/15 07:40:57;;;;;;;10.77;2.17;;;;;;;16.00;100.00;102209.06;5051994;28;20033;-65
2022/07/15 07:43:22;;;;;;;12.20;2.28;;;;;;;16.04;100.00;102216.16;5052859;28;20360;-65
2022/07/15 07:45:49;;;;;;;10.63;2.15;;;;;;;16.13;100.00;102219.75;5052349;28;20089;-65
2022/07/15 07:48:16;;;;;;;12.93;2.22;;;;;;;16.19;100.00;102217.09;5050687;28;20027;-65
2022/07/15 07:50:43;;;;;;;10.82;2.28;;;;;;;16.17;100.00;102218.88;5053239;28;20033;-65
2022/07/15 07:53:09;;;;;;;12.73;2.20;;;;;;;16.16;100.00;102217.09;5052678;28;20021;-65
2022/07/15 07:55:35;;;;;;;9.82;2.10;;;;;;;16.25;100.00;102218.88;5052440;28;20029;-64
2022/07/15 07:58:01;;;;;;;10.45;2.20;;;;;;;16.41;100.00;102223.41;5053004;28;20494;-64
2022/07/15 08:00:28;;;;;;;10.02;2.33;;;;;;;16.46;98.06;102216.28;5052717;28;20487;-65
2022/07/15 08:02:56;;;;;;;10.98;2.03;;;;;;;16.60;98.32;102213.63;5052776;28;20385;-64
2022/07/15 08:05:22;;;;;;;8.38;2.03;;;;;;;16.72;95.99;102212.75;5052462;28;20108;-64
2022/07/15 08:07:47;;;;;;;9.50;2.20;;;;;;;16.79;93.69;102217.19;5052509;28;20154;-64
2022/07/15 08:10:13;;;;;;;12.13;2.33;;;;;;;16.91;96.59;102216.34;5052829;28;20028;-64
2022/07/15 08:12:39;;;;;;;11.20;2.20;;;;;;;16.99;97.60;102210.97;5052022;28;20021;-66
2022/07/15 08:15:06;;;;;;;14.52;2.33;;;;;;;17.01;95.55;102214.56;5052387;28;20033;-66
2022/07/15 08:17:32;;;;;;;9.70;2.20;;;;;;;17.03;93.97;102210.97;5052409;28;20021;-65
2022/07/15 08:19:57;;;;;;;17.23;2.30;;;;;;;17.11;95.36;102213.66;5052385;28;20487;-65
2022/07/15 08:22:23;;;;;;;10.40;2.00;;;;;;;17.32;94.00;102215.38;5052522;28;20063;-66
2022/07/15 08:24:51;;;;;;;11.35;2.20;;;;;;;17.37;90.50;102218.97;5052227;28;20037;-66
2022/07/15 08:27:18;;;;;;;9.68;2.53;;;;;;;17.56;92.05;102218.88;5052394;28;20032;-65
2022/07/15 08:29:44;;;;;;;9.23;2.03;;;;;;;17.72;89.99;102225.06;5052358;28;20028;-66
2022/07/15 08:32:10;;;;;;;10.18;2.00;;;;;;;17.67;86.79;102226.91;5051331;28;20029;-67
2022/07/15 08:34:35;;;;;;;11.13;2.20;;;;;;;17.60;86.79;102224.25;5052045;28;20029;-66
2022/07/15 08:37:00;;;;;;;12.00;1.92;;;;;;;17.74;86.85;102216.16;5052127;28;20021;-65
2022/07/15 08:39:25;;;;;;;11.52;2.30;;;;;;;17.86;86.96;102215.22;5051364;28;20027;-65
2022/07/15 08:41:54;;;;;;;10.70;2.20;;;;;;;17.85;84.97;102213.44;5051036;28;20047;-66
2022/07/15 08:44:19;;;;;;;12.20;2.10;;;;;;;17.96;84.75;102209.88;5048118;28;20049;-65
2022/07/15 08:46:48;;;;;;;9.55;2.17;;;;;;;18.15;86.31;102202.66;5051616;28;20042;-66
2022/07/15 08:49:16;;;;;;;12.02;2.33;;;;;;;18.28;79.89;102209.69;5052366;28;20060;-65
2022/07/15 08:51:47;;;;;;;12.13;2.00;;;;;;;18.49;80.61;102207.75;5050900;28;20049;-65
2022/07/15 08:54:14;;;;;;;10.40;2.20;;;;;;;18.66;75.78;102205.84;5051286;28;20496;-66
2022/07/15 08:56:40;;;;;;;10.13;2.03;;;;;;;18.65;76.28;102209.41;5050963;28;20044;-65
2022/07/15 08:59:06;;;;;;;10.73;2.00;;;;;;;18.71;78.52;102206.72;5051671;28;20033;-65
2022/07/15 09:01:34;;;;;;;11.10;2.00;;;;;;;18.88;76.82;102214.63;5051431;28;20539;-65
2022/07/15 09:04:00;;;;;;;8.90;1.80;;;;;;;19.12;76.21;102209.94;5051439;28;20025;-65
2022/07/15 09:06:36;;;;;;;10.95;2.10;;;;;;;19.09;74.00;102210.88;5051218;28;20032;-65
2022/07/15 09:09:24;;;;;;;13.48;2.20;;;;;;;19.33;75.91;102207.03;5050389;28;20109;-65
2022/07/15 09:12:02;;;;;;;12.68;2.03;;;;;;;19.38;71.95;102201.63;5051203;28;20044;-64
2022/07/15 09:14:29;;;;;;;10.90;2.30;;;;;;;19.54;72.14;102201.47;5049832;28;20025;-65
2022/07/15 09:17:20;;;;;;;9.68;2.10;;;;;;;19.78;72.31;102201.19;5051241;28;20024;-65
2022/07/15 09:20:06;;;;;;;8.65;2.08;;;;;;;19.79;72.11;102194.94;5051521;28;20029;-64
2022/07/15 09:22:47;;;;;;;11.70;2.10;;;;;;;19.92;69.78;102197.44;5049642;28;20071;-67
2022/07/15 09:25:12;;;;;;;8.98;2.00;;;;;;;19.94;69.11;102201.00;5049561;28;20487;-65
2022/07/15 09:27:41;;;;;;;6.25;2.00;;;;;;;19.75;61.31;102194.97;5051429;28;20063;-65
2022/07/15 09:36:20;;;;;;;8.25;1.90;;;;;;;19.72;67.50;102203.94;5050428;28;20090;-66
2022/07/15 09:38:47;;;;;;;9.98;2.25;;;;;;;20.06;64.38;102200.81;5050647;28;20032;-65
2022/07/15 09:41:25;;;;;;;10.52;2.22;;;;;;;20.44;64.24;102206.56;5050303;28;20072;-66
2022/07/15 09:43:54;;;;;;;9.00;2.08;;;;;;;20.74;61.61;102210.59;5047586;28;20433;-65
2022/07/15 09:46:21;;;;;;;11.32;2.10;;;;;;;20.96;59.19;102194.97;5049995;28;20053;-65
2022/07/15 09:48:49;;;;;;;11.75;2.10;;;;;;;21.04;58.92;102200.19;5050137;28;20029;-65
2022/07/15 09:51:15;;;;;;;11.35;2.00;;;;;;;21.07;55.88;102198.34;5050832;28;20029;-65
2022/07/15 09:53:40;;;;;;;7.72;2.10;;;;;;;21.23;55.48;102196.28;5050836;28;20371;-65
2022/07/15 09:56:14;;;;;;;10.02;2.00;;;;;;;21.18;53.51;102195.47;5050495;28;20105;-65
2022/07/15 09:58:42;;;;;;;8.18;2.03;;;;;;;21.25;53.54;102191.75;5050615;28;20033;-65
2022/07/15 10:01:09;;;;;;;7.45;1.90;;;;;;;21.53;54.31;102191.22;5050156;28;20475;-65
2022/07/15 10:03:36;;;;;;;11.45;2.10;;;;;;;21.97;52.86;102188.50;5050386;28;20029;-64
2022/07/15 10:06:02;;;;;;;10.80;1.98;;;;;;;22.40;52.32;102190.25;5050386;28;20491;-65
2022/07/15 10:08:31;;;;;;;7.80;1.88;;;;;;;23.52;42.12;102187.34;5050991;28;20079;-66
2022/07/15 10:10:57;;;;;;;10.38;2.47;;;;;;;24.66;39.40;102189.28;5050552;28;20024;-65
2022/07/15 10:13:44;;;;;;;7.80;1.90;;;;;;;26.06;36.79;102178.75;5050913;28;20032;-66
2022/07/15 10:16:31;;;;;;;10.38;2.00;;;;;;;26.35;35.42;102181.25;5048300;28;20458;-65
2022/07/15 10:19:30;;;;;;;8.95;1.80;;;;;;;25.43;37.82;102177.59;5049932;28;20036;-66
2022/07/15 10:22:33;;;;;;;5.70;1.80;;;;;;;27.98;34.30;102173.19;5048672;28;20067;-66
2022/07/15 10:25:50;;;;;;;8.43;1.70;;;;;;;29.74;31.37;102185.88;5048329;28;20430;-65
2022/07/15 10:28:25;;;;;;;7.40;1.80;;;;;;;29.71;29.11;102172.44;5007108;28;20049;-64
2022/07/15 10:31:13;;;;;;;7.10;1.60;;;;;;;30.60;30.34;102171.91;5007731;28;20133;-66
2022/07/15 10:33:38;;;;;;;9.27;2.28;;;;;;;31.48;26.41;102171.13;5008204;28;20100;-66
2022/07/15 10:36:04;;;;;;;5.57;1.73;;;;;;;32.05;25.97;102164.72;5007927;28;20483;-66
2022/07/15 10:38:34;;;;;;;10.15;1.92;;;;;;;32.47;24.96;102168.31;5006058;28;20041;-66
2022/07/15 10:41:06;;;;;;;6.60;1.65;;;;;;;33.38;24.56;102164.78;5006233;28;20057;-66
2022/07/15 10:43:38;;;;;;;11.65;1.95;;;;;;;33.68;24.10;102158.91;5008005;28;20054;-66
2022/07/15 10:46:05;;;;;;;8.35;1.92;;;;;;;32.16;24.37;102159.44;5006649;28;20172;-66
2022/07/15 10:48:30;;;;;;;7.65;1.80;;;;;;;30.45;25.60;102164.63;5000427;28;20154;-66
2022/07/15 10:50:56;;;;;;;6.80;1.48;;;;;;;29.07;26.22;102153.19;5004365;28;20453;-64
2022/07/15 10:53:25;;;;;;;4.45;1.63;;;;;;;29.86;26.25;102148.94;5000854;28;20026;-66
2022/07/15 10:55:51;;;;;;;7.18;1.90;;;;;;;30.91;25.82;102143.63;5007354;28;20026;-66
2022/07/15 10:58:17;;;;;;;8.27;1.80;;;;;;;32.20;24.86;102141.88;5008971;28;20034;-66
2022/07/15 11:00:43;;;;;;;11.90;2.00;;;;;;;33.14;23.11;102146.31;5006113;28;20033;-66
2022/07/15 11:03:12;;;;;;;8.82;1.73;;;;;;;34.02;23.14;102144.59;5017463;28;20033;-66
2022/07/15 11:06:02;;;;;;;7.45;1.90;;;;;;;34.83;22.83;102151.19;5049709;28;20025;-67
2022/07/15 11:08:36;;;;;;;8.88;1.80;;;;;;;34.97;22.37;102139.13;5053703;28;20040;-66
2022/07/15 11:11:13;;;;;;;8.98;1.75;;;;;;;35.50;21.96;102141.31;5053088;28;20043;-65
2022/07/15 11:13:39;;;;;;;11.73;1.77;;;;;;;36.52;19.37;102141.06;5053412;28;20059;-66
2022/07/15 11:16:09;;;;;;;7.68;1.90;;;;;;;36.81;19.04;102137.69;5053084;28;20052;-67
2022/07/15 11:18:52;;;;;;;6.15;1.73;;;;;;;35.98;21.94;102131.88;5053846;28;20043;-66
2022/07/15 11:21:19;;;;;;;7.40;1.80;;;;;;;34.28;20.90;102134.41;5052825;28;20064;-65
2022/07/15 11:23:46;;;;;;;7.70;2.00;;;;;;;31.73;23.46;102129.44;5052807;28;20043;-66